Flight Briefing for CPX964

Departure Arrival
Joint Base McGuire Dix Lakehurst (KWRI)
Click to view FAA NOTAMS
Chicago/Rockford International Airport (KRFD)
Click to view FAA NOTAMS
Departure Time Arrival Time
N/A N/A
Aircraft Distance
B767-300BDSF 670nm
Departure METAR Arrival METAR
KWRI 271056Z AUTO 36004KT 10SM CLR 20/13 A2990 RMK AO2 SLP124 T02020134 $ KRFD 271054Z 09007KT 10SM BKN220 13/09 A3002 RMK AO2 SLP161 T01330089 $
Suggested Route
MXE4 AIR APE J178 FWA HOBAR J60 JOT V171 RFD


View recent IFR Routes data
Notes
EMPTY | NON-REVENUE REPOSITIONING LEG

Charts and Procedures

Charts for KWRI
No chart available
Charts for KRFD
No chart available

Windy.com Weather Map